sensor_id;sensor_type;location;lat;lon;timestamp;pressure;altitude;pressure_sealevel;temperature;humidity
71966;BME280;59836;52.132;5.442;2023-05-24T00:00:06;102535.47;;;9.27;80.10
71966;BME280;59836;52.132;5.442;2023-05-24T00:02:39;102531.13;;;9.26;79.74
71966;BME280;59836;52.132;5.442;2023-05-24T00:05:08;102530.72;;;9.22;79.92
71966;BME280;59836;52.132;5.442;2023-05-24T00:07:36;102533.88;;;9.19;79.98
71966;BME280;59836;52.132;5.442;2023-05-24T00:10:04;102532.66;;;9.15;79.84
71966;BME280;59836;52.132;5.442;2023-05-24T00:12:31;102530.56;;;9.17;79.53
71966;BME280;59836;52.132;5.442;2023-05-24T00:14:58;102535.56;;;9.13;79.70
71966;BME280;59836;52.132;5.442;2023-05-24T00:17:24;102527.25;;;9.08;79.96
71966;BME280;59836;52.132;5.442;2023-05-24T00:19:51;102526.03;;;9.04;79.72
71966;BME280;59836;52.132;5.442;2023-05-24T00:22:18;102522.28;;;9.05;79.82
71966;BME280;59836;52.132;5.442;2023-05-24T00:24:47;102525.66;;;9.00;80.25
71966;BME280;59836;52.132;5.442;2023-05-24T00:27:14;102523.75;;;9.01;79.98
71966;BME280;59836;52.132;5.442;2023-05-24T00:29:40;102521.06;;;9.01;79.89
71966;BME280;59836;52.132;5.442;2023-05-24T00:32:07;102520.31;;;8.94;80.14
71966;BME280;59836;52.132;5.442;2023-05-24T00:34:34;102518.81;;;8.98;80.06
71966;BME280;59836;52.132;5.442;2023-05-24T00:37:00;102519.44;;;9.00;80.49
71966;BME280;59836;52.132;5.442;2023-05-24T00:39:27;102511.50;;;8.98;79.85
71966;BME280;59836;52.132;5.442;2023-05-24T00:41:53;102507.81;;;8.93;79.98
71966;BME280;59836;52.132;5.442;2023-05-24T00:44:20;102511.78;;;8.90;79.99
71966;BME280;59836;52.132;5.442;2023-05-24T00:46:46;102504.94;;;8.88;79.97
71966;BME280;59836;52.132;5.442;2023-05-24T00:49:13;102506.19;;;8.85;79.91
71966;BME280;59836;52.132;5.442;2023-05-24T00:51:40;102501.19;;;8.89;80.08
71966;BME280;59836;52.132;5.442;2023-05-24T00:54:06;102504.94;;;8.88;80.10
71966;BME280;59836;52.132;5.442;2023-05-24T00:56:33;102500.34;;;8.88;79.59
71966;BME280;59836;52.132;5.442;2023-05-24T00:59:00;102498.28;;;8.83;79.68
71966;BME280;59836;52.132;5.442;2023-05-24T01:01:26;102493.31;;;8.80;79.89
71966;BME280;59836;52.132;5.442;2023-05-24T01:03:56;102501.19;;;8.82;79.99
71966;BME280;59836;52.132;5.442;2023-05-24T01:06:26;102491.41;;;8.81;79.81
71966;BME280;59836;52.132;5.442;2023-05-24T01:14:57;102500.19;;;8.76;79.61
71966;BME280;59836;52.132;5.442;2023-05-24T01:20:06;102501.25;;;8.75;80.27
71966;BME280;59836;52.132;5.442;2023-05-24T01:25:48;102500.44;;;8.68;80.62
71966;BME280;59836;52.132;5.442;2023-05-24T01:28:17;102503.97;;;8.68;80.51
71966;BME280;59836;52.132;5.442;2023-05-24T01:30:44;102502.75;;;8.64;80.34
71966;BME280;59836;52.132;5.442;2023-05-24T01:33:11;102505.06;;;8.61;80.25
71966;BME280;59836;52.132;5.442;2023-05-24T01:35:38;102498.00;;;8.60;80.46
71966;BME280;59836;52.132;5.442;2023-05-24T01:38:08;102500.88;;;8.58;80.94
71966;BME280;59836;52.132;5.442;2023-05-24T01:40:38;102500.06;;;8.57;80.78
71966;BME280;59836;52.132;5.442;2023-05-24T01:46:10;102501.75;;;8.59;81.24
71966;BME280;59836;52.132;5.442;2023-05-24T01:49:11;102498.81;;;8.60;80.88
71966;BME280;59836;52.132;5.442;2023-05-24T01:51:49;102498.59;;;8.62;81.13
71966;BME280;59836;52.132;5.442;2023-05-24T01:54:20;102498.59;;;8.62;81.14
71966;BME280;59836;52.132;5.442;2023-05-24T01:56:51;102500.69;;;8.60;81.04
71966;BME280;59836;52.132;5.442;2023-05-24T01:59:19;102496.94;;;8.61;80.90
71966;BME280;59836;52.132;5.442;2023-05-24T02:01:47;102497.75;;;8.61;81.53
71966;BME280;59836;52.132;5.442;2023-05-24T02:04:15;102500.03;;;8.64;81.46
71966;BME280;59836;52.132;5.442;2023-05-24T02:06:41;102490.88;;;8.65;81.87
71966;BME280;59836;52.132;5.442;2023-05-24T02:09:08;102498.78;;;8.67;81.83
71966;BME280;59836;52.132;5.442;2023-05-24T02:11:34;102491.09;;;8.64;82.28
71966;BME280;59836;52.132;5.442;2023-05-24T02:14:01;102496.09;;;8.67;82.34
71966;BME280;59836;52.132;5.442;2023-05-24T02:16:27;102490.69;;;8.67;82.54
71966;BME280;59836;52.132;5.442;2023-05-24T02:18:56;102487.34;;;8.65;82.48
71966;BME280;59836;52.132;5.442;2023-05-24T02:21:23;102488.78;;;8.67;82.31
71966;BME280;59836;52.132;5.442;2023-05-24T02:23:50;102485.03;;;8.68;82.46
71966;BME280;59836;52.132;5.442;2023-05-24T02:26:16;102483.19;;;8.69;82.39
71966;BME280;59836;52.132;5.442;2023-05-24T02:28:46;102484.41;;;8.73;82.09
71966;BME280;59836;52.132;5.442;2023-05-24T02:31:13;102481.69;;;8.73;82.06
71966;BME280;59836;52.132;5.442;2023-05-24T02:33:40;102486.25;;;8.73;82.11
71966;BME280;59836;52.132;5.442;2023-05-24T02:36:07;102480.03;;;8.72;82.35
71966;BME280;59836;52.132;5.442;2023-05-24T02:38:33;102487.53;;;8.70;82.31
71966;BME280;59836;52.132;5.442;2023-05-24T02:41:00;102487.53;;;8.70;82.00
71966;BME280;59836;52.132;5.442;2023-05-24T02:43:26;102487.13;;;8.66;82.09
71966;BME280;59836;52.132;5.442;2023-05-24T02:45:52;102484.66;;;8.65;81.98
71966;BME280;59836;52.132;5.442;2023-05-24T02:48:19;102492.97;;;8.63;81.82
71966;BME280;59836;52.132;5.442;2023-05-24T02:50:46;102491.72;;;8.59;81.49
71966;BME280;59836;52.132;5.442;2023-05-24T02:53:12;102489.25;;;8.57;82.26
71966;BME280;59836;52.132;5.442;2023-05-24T02:55:39;102493.41;;;8.60;82.29
71966;BME280;59836;52.132;5.442;2023-05-24T02:58:05;102498.41;;;8.56;82.55
71966;BME280;59836;52.132;5.442;2023-05-24T03:00:33;102497.56;;;8.56;82.00
71966;BME280;59836;52.132;5.442;2023-05-24T03:02:59;102505.91;;;8.54;82.36
71966;BME280;59836;52.132;5.442;2023-05-24T03:05:28;102499.47;;;8.55;82.42
71966;BME280;59836;52.132;5.442;2023-05-24T03:07:55;102499.22;;;8.57;81.91
71966;BME280;59836;52.132;5.442;2023-05-24T03:10:21;102507.16;;;8.52;82.25
71966;BME280;59836;52.132;5.442;2023-05-24T03:12:48;102496.78;;;8.49;82.32
71966;BME280;59836;52.132;5.442;2023-05-24T03:15:14;102503.84;;;8.43;82.34
71966;BME280;59836;52.132;5.442;2023-05-24T03:17:41;102500.53;;;8.41;82.12
71966;BME280;59836;52.132;5.442;2023-05-24T03:20:08;102502.84;;;8.37;82.27
71966;BME280;59836;52.132;5.442;2023-05-24T03:22:37;102489.75;;;8.34;82.54
71966;BME280;59836;52.132;5.442;2023-05-24T03:25:04;102484.72;;;8.38;82.72
71966;BME280;59836;52.132;5.442;2023-05-24T03:27:30;102486.38;;;8.39;82.41
71966;BME280;59836;52.132;5.442;2023-05-24T03:29:57;102481.41;;;8.36;82.66
71966;BME280;59836;52.132;5.442;2023-05-24T03:32:23;102479.13;;;8.33;81.99
71966;BME280;59836;52.132;5.442;2023-05-24T03:34:49;102475.19;;;8.28;82.59
71966;BME280;59836;52.132;5.442;2023-05-24T03:37:16;102470.84;;;8.27;82.29
71966;BME280;59836;52.132;5.442;2023-05-24T03:39:42;102475.63;;;8.25;82.98
71966;BME280;59836;52.132;5.442;2023-05-24T03:42:09;102481.66;;;8.27;82.65
71966;BME280;59836;52.132;5.442;2023-05-24T03:44:36;102482.69;;;8.26;82.63
71966;BME280;59836;52.132;5.442;2023-05-24T03:47:03;102485.41;;;8.26;82.59
71966;BME280;59836;52.132;5.442;2023-05-24T03:49:30;102486.44;;;8.25;83.12
71966;BME280;59836;52.132;5.442;2023-05-24T03:51:57;102486.88;;;8.22;83.07
71966;BME280;59836;52.132;5.442;2023-05-24T03:54:23;102476.06;;;8.22;83.45
71966;BME280;59836;52.132;5.442;2023-05-24T03:56:50;102486.44;;;8.25;83.06
71966;BME280;59836;52.132;5.442;2023-05-24T03:59:18;102484.78;;;8.24;83.48
71966;BME280;59836;52.132;5.442;2023-05-24T04:01:45;102486.44;;;8.25;83.35
71966;BME280;59836;52.132;5.442;2023-05-24T04:04:11;102483.53;;;8.27;83.05
71966;BME280;59836;52.132;5.442;2023-05-24T04:06:38;102481.88;;;8.26;83.55
71966;BME280;59836;52.132;5.442;2023-05-24T04:09:07;102481.03;;;8.25;83.48
71966;BME280;59836;52.132;5.442;2023-05-24T04:11:33;102480.84;;;8.27;83.40
71966;BME280;59836;52.132;5.442;2023-05-24T04:14:01;102476.84;;;8.30;83.31
71966;BME280;59836;52.132;5.442;2023-05-24T04:16:28;102483.91;;;8.31;83.44
71966;BME280;59836;52.132;5.442;2023-05-24T04:18:59;102474.78;;;8.32;83.71
71966;BME280;59836;52.132;5.442;2023-05-24T04:21:30;102479.13;;;8.33;84.07
71966;BME280;59836;52.132;5.442;2023-05-24T04:23:57;102475.38;;;8.34;84.40
71966;BME280;59836;52.132;5.442;2023-05-24T04:26:27;102475.81;;;8.37;84.32
71966;BME280;59836;52.132;5.442;2023-05-24T04:28:54;102481.59;;;8.41;83.95
71966;BME280;59836;52.132;5.442;2023-05-24T04:31:22;102475.56;;;8.46;84.29
71966;BME280;59836;52.132;5.442;2023-05-24T04:33:48;102477.66;;;8.50;84.66
71966;BME280;59836;52.132;5.442;2023-05-24T04:36:15;102478.47;;;8.51;84.54
71966;BME280;59836;52.132;5.442;2023-05-24T04:38:42;102481.56;;;8.54;84.59
71966;BME280;59836;52.132;5.442;2023-05-24T04:41:11;102483.63;;;8.59;84.79
71966;BME280;59836;52.132;5.442;2023-05-24T04:43:37;102477.78;;;8.62;85.08
71966;BME280;59836;52.132;5.442;2023-05-24T04:46:04;102476.72;;;8.70;85.31
71966;BME280;59836;52.132;5.442;2023-05-24T04:48:34;102485.00;;;8.75;85.22
71966;BME280;59836;52.132;5.442;2023-05-24T04:51:00;102481.44;;;8.81;85.61
71966;BME280;59836;52.132;5.442;2023-05-24T04:53:27;102481.63;;;8.86;86.06
71966;BME280;59836;52.132;5.442;2023-05-24T04:55:53;102489.91;;;8.92;86.23
71966;BME280;59836;52.132;5.442;2023-05-24T04:58:20;102485.50;;;8.97;86.30
71966;BME280;59836;52.132;5.442;2023-05-24T05:00:46;102485.44;;;9.04;86.55
71966;BME280;59836;52.132;5.442;2023-05-24T05:03:13;102488.50;;;9.14;86.17
71966;BME280;59836;52.132;5.442;2023-05-24T05:05:39;102482.22;;;9.21;86.61
71966;BME280;59836;52.132;5.442;2023-05-24T05:08:06;102476.75;;;9.27;86.21
71966;BME280;59836;52.132;5.442;2023-05-24T05:10:33;102486.47;;;9.35;86.80
71966;BME280;59836;52.132;5.442;2023-05-24T05:12:59;102484.97;;;9.39;87.38
71966;BME280;59836;52.132;5.442;2023-05-24T05:15:25;102491.63;;;9.43;86.81
71966;BME280;59836;52.132;5.442;2023-05-24T05:17:52;102485.94;;;9.52;86.84
71966;BME280;59836;52.132;5.442;2023-05-24T05:20:18;102492.94;;;9.59;86.82
71966;BME280;59836;52.132;5.442;2023-05-24T05:22:46;102476.63;;;9.66;86.94
71966;BME280;59836;52.132;5.442;2023-05-24T05:25:12;102484.06;;;9.71;86.82
71966;BME280;59836;52.132;5.442;2023-05-24T05:27:39;102481.31;;;9.78;87.08
71966;BME280;59836;52.132;5.442;2023-05-24T05:30:06;102488.56;;;9.84;86.48
71966;BME280;59836;52.132;5.442;2023-05-24T05:32:33;102489.31;;;9.91;86.39
71966;BME280;59836;52.132;5.442;2023-05-24T05:35:00;102488.41;;;9.97;86.27
71966;BME280;59836;52.132;5.442;2023-05-24T05:37:27;102492.94;;;10.03;85.79
71966;BME280;59836;52.132;5.442;2023-05-24T05:39:53;102495.78;;;10.09;86.44
71966;BME280;59836;52.132;5.442;2023-05-24T05:42:19;102491.56;;;10.13;86.34
71966;BME280;59836;52.132;5.442;2023-05-24T05:44:46;102491.72;;;10.18;86.49
71966;BME280;59836;52.132;5.442;2023-05-24T05:47:12;102486.69;;;10.22;86.59
71966;BME280;59836;52.132;5.442;2023-05-24T05:49:39;102496.38;;;10.29;85.92
71966;BME280;59836;52.132;5.442;2023-05-24T05:52:05;102493.22;;;10.32;86.46
71966;BME280;59836;52.132;5.442;2023-05-24T05:54:32;102499.84;;;10.37;86.00
71966;BME280;59836;52.132;5.442;2023-05-24T05:56:58;102502.75;;;10.42;86.05
71966;BME280;59836;52.132;5.442;2023-05-24T05:59:27;102499.13;;;10.48;85.77
71966;BME280;59836;52.132;5.442;2023-05-24T06:01:53;102491.59;;;10.50;85.18
71966;BME280;59836;52.132;5.442;2023-05-24T06:04:19;102496.09;;;10.56;84.85
71966;BME280;59836;52.132;5.442;2023-05-24T06:06:46;102495.19;;;10.62;85.09
71966;BME280;59836;52.132;5.442;2023-05-24T06:09:15;102486.13;;;10.69;85.48
71966;BME280;59836;52.132;5.442;2023-05-24T06:11:42;102488.13;;;10.73;85.20
71966;BME280;59836;52.132;5.442;2023-05-24T06:14:11;102493.94;;;10.77;85.35
71966;BME280;59836;52.132;5.442;2023-05-24T06:16:38;102483.44;;;10.81;85.13
71966;BME280;59836;52.132;5.442;2023-05-24T06:19:07;102493.63;;;10.85;85.04
71966;BME280;59836;52.132;5.442;2023-05-24T06:21:34;102495.88;;;10.88;84.55
71966;BME280;59836;52.132;5.442;2023-05-24T06:24:02;102499.78;;;10.92;84.27
71966;BME280;59836;52.132;5.442;2023-05-24T06:26:29;102497.44;;;10.96;84.04
71966;BME280;59836;52.132;5.442;2023-05-24T06:28:56;102504.44;;;11.04;83.26
71966;BME280;59836;52.132;5.442;2023-05-24T06:31:22;102500.81;;;11.10;82.57
71966;BME280;59836;52.132;5.442;2023-05-24T06:33:49;102500.44;;;11.18;82.31
71966;BME280;59836;52.132;5.442;2023-05-24T06:36:29;102507.06;;;11.22;81.47
71966;BME280;59836;52.132;5.442;2023-05-24T06:38:59;102506.59;;;11.26;81.40
71966;BME280;59836;52.132;5.442;2023-05-24T06:41:25;102506.13;;;11.29;82.08
71966;BME280;59836;52.132;5.442;2023-05-24T06:43:52;102504.59;;;11.33;81.65
71966;BME280;59836;52.132;5.442;2023-05-24T06:46:18;102500.13;;;11.39;81.65
71966;BME280;59836;52.132;5.442;2023-05-24T06:48:45;102506.75;;;11.43;81.54
71966;BME280;59836;52.132;5.442;2023-05-24T06:51:11;102510.06;;;11.45;80.99
71966;BME280;59836;52.132;5.442;2023-05-24T06:53:38;102506.63;;;11.49;80.86
71966;BME280;59836;52.132;5.442;2023-05-24T06:56:04;102508.66;;;11.54;80.78
71966;BME280;59836;52.132;5.442;2023-05-24T06:58:31;102508.06;;;11.64;80.14
71966;BME280;59836;52.132;5.442;2023-05-24T07:00:58;102512.56;;;11.70;79.32
71966;BME280;59836;52.132;5.442;2023-05-24T07:03:24;102522.97;;;11.73;79.21
71966;BME280;59836;52.132;5.442;2023-05-24T07:05:51;102521.31;;;11.72;79.03
71966;BME280;59836;52.132;5.442;2023-05-24T07:08:18;102507.25;;;11.75;78.98
71966;BME280;59836;52.132;5.442;2023-05-24T07:10:44;102523.31;;;11.77;78.81
71966;BME280;59836;52.132;5.442;2023-05-24T07:13:11;102518.84;;;11.82;78.58
71966;BME280;59836;52.132;5.442;2023-05-24T07:15:40;102524.72;;;11.91;78.83
71966;BME280;59836;52.132;5.442;2023-05-24T07:18:07;102515.28;;;11.94;78.01
71966;BME280;59836;52.132;5.442;2023-05-24T07:20:33;102514.69;;;11.92;78.75
71966;BME280;59836;52.132;5.442;2023-05-24T07:23:00;102518.59;;;11.96;77.42
71966;BME280;59836;52.132;5.442;2023-05-24T07:25:27;102524.03;;;11.96;77.26
71966;BME280;59836;52.132;5.442;2023-05-24T07:27:53;102519.81;;;12.00;77.19
71966;BME280;59836;52.132;5.442;2023-05-24T07:30:20;102514.00;;;12.08;77.78
71966;BME280;59836;52.132;5.442;2023-05-24T07:32:58;102520.63;;;12.13;77.54
71966;BME280;59836;52.132;5.442;2023-05-24T07:35:25;102522.28;;;12.14;76.92
71966;BME280;59836;52.132;5.442;2023-05-24T07:37:51;102526.88;;;12.13;76.91
71966;BME280;59836;52.132;5.442;2023-05-24T07:40:18;102526.06;;;12.13;76.40
71966;BME280;59836;52.132;5.442;2023-05-24T07:42:44;102527.72;;;12.14;76.66
71966;BME280;59836;52.132;5.442;2023-05-24T07:45:12;102526.41;;;12.16;76.69
71966;BME280;59836;52.132;5.442;2023-05-24T07:47:39;102523.47;;;12.18;76.94
71966;BME280;59836;52.132;5.442;2023-05-24T07:50:06;102519.66;;;12.19;76.63
71966;BME280;59836;52.132;5.442;2023-05-24T07:52:32;102520.81;;;12.23;76.63
71966;BME280;59836;52.132;5.442;2023-05-24T07:54:59;102526.38;;;12.28;75.97
71966;BME280;59836;52.132;5.442;2023-05-24T07:57:25;102516.91;;;12.31;74.92
71966;BME280;59836;52.132;5.442;2023-05-24T07:59:52;102518.41;;;12.38;75.46
71966;BME280;59836;52.132;5.442;2023-05-24T08:02:19;102516.97;;;12.48;73.16
71966;BME280;59836;52.132;5.442;2023-05-24T08:04:45;102519.91;;;12.58;73.47
71966;BME280;59836;52.132;5.442;2023-05-24T08:07:12;102512.44;;;12.65;73.68
71966;BME280;59836;52.132;5.442;2023-05-24T08:09:39;102519.72;;;12.77;73.14
71966;BME280;59836;52.132;5.442;2023-05-24T08:12:07;102517.09;;;12.82;73.29
71966;BME280;59836;52.132;5.442;2023-05-24T08:14:33;102519.56;;;12.83;73.28
71966;BME280;59836;52.132;5.442;2023-05-24T08:17:00;102529.16;;;12.86;73.12
71966;BME280;59836;52.132;5.442;2023-05-24T08:19:27;102520.72;;;12.88;73.27
71966;BME280;59836;52.132;5.442;2023-05-24T08:21:54;102516.81;;;12.95;73.35
71966;BME280;59836;52.132;5.442;2023-05-24T08:24:22;102510.88;;;12.98;73.15
71966;BME280;59836;52.132;5.442;2023-05-24T08:26:49;102516.41;;;13.04;73.51
71966;BME280;59836;52.132;5.442;2023-05-24T08:29:18;102505.69;;;13.14;71.93
71966;BME280;59836;52.132;5.442;2023-05-24T08:31:44;102514.19;;;13.18;71.71
71966;BME280;59836;52.132;5.442;2023-05-24T08:34:11;102514.53;;;13.21;71.75
71966;BME280;59836;52.132;5.442;2023-05-24T08:36:38;102514.06;;;13.24;71.38
71966;BME280;59836;52.132;5.442;2023-05-24T08:39:04;102520.13;;;13.32;70.40
71966;BME280;59836;52.132;5.442;2023-05-24T08:41:31;102505.28;;;13.39;69.70
71966;BME280;59836;52.132;5.442;2023-05-24T08:44:05;102507.56;;;13.42;69.26
71966;BME280;59836;52.132;5.442;2023-05-24T08:46:36;102503.00;;;13.48;69.13
71966;BME280;59836;52.132;5.442;2023-05-24T08:49:03;102510.75;;;13.56;69.44
71966;BME280;59836;52.132;5.442;2023-05-24T08:51:31;102506.47;;;13.61;68.58
71966;BME280;59836;52.132;5.442;2023-05-24T08:53:58;102500.50;;;13.64;67.02
71966;BME280;59836;52.132;5.442;2023-05-24T08:56:26;102506.22;;;13.62;67.08
71966;BME280;59836;52.132;5.442;2023-05-24T08:58:54;102498.88;;;13.63;67.42
71966;BME280;59836;52.132;5.442;2023-05-24T09:01:22;102503.00;;;13.65;67.08
71966;BME280;59836;52.132;5.442;2023-05-24T09:03:50;102495.41;;;13.67;66.10
71966;BME280;59836;52.132;5.442;2023-05-24T09:06:17;102505.81;;;13.70;67.40
71966;BME280;59836;52.132;5.442;2023-05-24T09:08:44;102500.59;;;13.69;67.24
71966;BME280;59836;52.132;5.442;2023-05-24T09:11:13;102510.91;;;13.67;66.21
71966;BME280;59836;52.132;5.442;2023-05-24T09:13:40;102507.03;;;13.63;67.21
71966;BME280;59836;52.132;5.442;2023-05-24T09:16:07;102512.50;;;13.63;66.97
71966;BME280;59836;52.132;5.442;2023-05-24T09:18:33;102511.91;;;13.61;66.11
71966;BME280;59836;52.132;5.442;2023-05-24T09:21:00;102511.69;;;13.62;66.57
71966;BME280;59836;52.132;5.442;2023-05-24T09:23:26;102512.75;;;13.61;67.09
71966;BME280;59836;52.132;5.442;2023-05-24T09:25:53;102514.06;;;13.58;67.15
71966;BME280;59836;52.132;5.442;2023-05-24T09:28:20;102522.25;;;13.58;67.41
71966;BME280;59836;52.132;5.442;2023-05-24T09:30:57;102520.00;;;13.55;67.00
71966;BME280;59836;52.132;5.442;2023-05-24T09:33:32;102521.66;;;13.56;67.61
71966;BME280;59836;52.132;5.442;2023-05-24T09:36:00;102514.06;;;13.58;66.62
71966;BME280;59836;52.132;5.442;2023-05-24T09:38:27;102517.38;;;13.61;66.24
71966;BME280;59836;52.132;5.442;2023-05-24T09:41:05;102513.00;;;13.60;66.10
71966;BME280;59836;52.132;5.442;2023-05-24T09:43:33;102509.38;;;13.54;65.60
71966;BME280;59836;52.132;5.442;2023-05-24T09:46:03;102518.38;;;13.54;66.47
71966;BME280;59836;52.132;5.442;2023-05-24T09:48:30;102512.69;;;13.56;66.48
71966;BME280;59836;52.132;5.442;2023-05-24T09:51:06;102513.75;;;13.55;66.50
71966;BME280;59836;52.132;5.442;2023-05-24T09:53:36;102509.94;;;13.56;66.46
71966;BME280;59836;52.132;5.442;2023-05-24T09:56:08;102511.53;;;13.52;66.14
71966;BME280;59836;52.132;5.442;2023-05-24T09:58:35;102515.56;;;13.49;65.98
71966;BME280;59836;52.132;5.442;2023-05-24T10:01:06;102527.63;;;13.53;66.28
71966;BME280;59836;52.132;5.442;2023-05-24T10:03:34;102516.47;;;13.55;66.87
71966;BME280;59836;52.132;5.442;2023-05-24T10:06:01;102518.44;;;13.60;65.83
71966;BME280;59836;52.132;5.442;2023-05-24T10:08:30;102516.78;;;13.58;65.61
71966;BME280;59836;52.132;5.442;2023-05-24T10:11:00;102518.44;;;13.60;65.11
71966;BME280;59836;52.132;5.442;2023-05-24T10:13:27;102520.94;;;13.61;64.77
71966;BME280;59836;52.132;5.442;2023-05-24T10:15:54;102523.66;;;13.61;63.51
71966;BME280;59836;52.132;5.442;2023-05-24T10:18:21;102521.75;;;13.62;65.44
71966;BME280;59836;52.132;5.442;2023-05-24T10:20:48;102518.53;;;13.65;66.36
71966;BME280;59836;52.132;5.442;2023-05-24T10:23:19;102525.06;;;13.64;65.19
71966;BME280;59836;52.132;5.442;2023-05-24T10:26:10;102517.94;;;13.63;66.06
71966;BME280;59836;52.132;5.442;2023-05-24T10:28:41;102515.56;;;13.66;65.55
71966;BME280;59836;52.132;5.442;2023-05-24T10:33:39;102518.03;;;13.68;64.91
71966;BME280;59836;52.132;5.442;2023-05-24T10:36:09;102521.03;;;13.66;65.31
71966;BME280;59836;52.132;5.442;2023-05-24T10:38:37;102514.22;;;13.69;65.64
71966;BME280;59836;52.132;5.442;2023-05-24T10:41:07;102511.00;;;13.72;65.53
71966;BME280;59836;52.132;5.442;2023-05-24T10:43:34;102515.38;;;13.73;64.88
71966;BME280;59836;52.132;5.442;2023-05-24T10:46:02;102513.72;;;13.72;64.99
71966;BME280;59836;52.132;5.442;2023-05-24T10:48:34;102514.56;;;13.72;65.15
71966;BME280;59836;52.132;5.442;2023-05-24T10:51:37;102502.31;;;13.75;65.46
71966;BME280;59836;52.132;5.442;2023-05-24T10:54:15;102510.00;;;13.78;64.76
71966;BME280;59836;52.132;5.442;2023-05-24T10:56:47;102509.00;;;13.84;64.70
71966;BME280;59836;52.132;5.442;2023-05-24T10:59:28;102515.34;;;13.90;64.89
71966;BME280;59836;52.132;5.442;2023-05-24T11:01:56;102505.28;;;13.91;63.69
71966;BME280;59836;52.132;5.442;2023-05-24T11:04:24;102508.88;;;13.96;64.03
71966;BME280;59836;52.132;5.442;2023-05-24T11:06:55;102517.91;;;13.97;63.25
71966;BME280;59836;52.132;5.442;2023-05-24T11:09:23;102516.84;;;13.98;62.49
71966;BME280;59836;52.132;5.442;2023-05-24T11:11:58;102516.84;;;13.98;63.60
71966;BME280;59836;52.132;5.442;2023-05-24T11:14:28;102506.72;;;13.98;63.38
71966;BME280;59836;52.132;5.442;2023-05-24T11:16:56;102502.34;;;13.97;63.43
71966;BME280;59836;52.132;5.442;2023-05-24T11:19:28;102506.50;;;14.00;64.30
71966;BME280;59836;52.132;5.442;2023-05-24T11:21:56;102511.69;;;14.01;63.05
71966;BME280;59836;52.132;5.442;2023-05-24T11:24:26;102504.91;;;14.04;63.18
71966;BME280;59836;52.132;5.442;2023-05-24T11:26:53;102514.25;;;14.08;63.70
71966;BME280;59836;52.132;5.442;2023-05-24T11:29:19;102512.66;;;14.12;63.00
71966;BME280;59836;52.132;5.442;2023-05-24T11:31:52;102519.78;;;14.13;62.94
71966;BME280;59836;52.132;5.442;2023-05-24T11:34:20;102505.88;;;14.15;63.06
71966;BME280;59836;52.132;5.442;2023-05-24T11:36:48;102500.75;;;14.19;63.00
71966;BME280;59836;52.132;5.442;2023-05-24T11:39:15;102502.69;;;14.23;62.89
71966;BME280;59836;52.132;5.442;2023-05-24T11:41:42;102501.38;;;14.26;62.30
71966;BME280;59836;52.132;5.442;2023-05-24T11:44:10;102496.50;;;14.28;62.28
71966;BME280;59836;52.132;5.442;2023-05-24T11:46:41;102496.78;;;14.31;62.77
71966;BME280;59836;52.132;5.442;2023-05-24T11:49:15;102497.38;;;14.34;62.83
71966;BME280;59836;52.132;5.442;2023-05-24T11:51:42;102503.13;;;14.37;62.34
71966;BME280;59836;52.132;5.442;2023-05-24T11:54:09;102501.47;;;14.36;63.00
71966;BME280;59836;52.132;5.442;2023-05-24T11:56:36;102511.88;;;14.39;63.23
71966;BME280;59836;52.132;5.442;2023-05-24T11:59:26;102499.94;;;14.45;63.13
71966;BME280;59836;52.132;5.442;2023-05-24T12:01:57;102504.97;;;14.54;63.43
71966;BME280;59836;52.132;5.442;2023-05-24T12:04:26;102498.75;;;14.58;63.07
71966;BME280;59836;52.132;5.442;2023-05-24T12:06:53;102494.38;;;14.57;62.96
71966;BME280;59836;52.132;5.442;2023-05-24T12:09:21;102492.16;;;14.54;63.02
71966;BME280;59836;52.132;5.442;2023-05-24T12:11:50;102493.75;;;14.50;63.35
71966;BME280;59836;52.132;5.442;2023-05-24T12:14:31;102492.16;;;14.54;63.20
71966;BME280;59836;52.132;5.442;2023-05-24T12:16:59;102497.97;;;14.63;63.14
71966;BME280;59836;52.132;5.442;2023-05-24T12:19:30;102495.91;;;14.70;62.70
71966;BME280;59836;52.132;5.442;2023-05-24T12:22:03;102491.84;;;14.73;63.73
71966;BME280;59836;52.132;5.442;2023-05-24T12:24:32;102493.22;;;14.75;63.42
71966;BME280;59836;52.132;5.442;2023-05-24T12:27:00;102497.03;;;14.74;63.25
71966;BME280;59836;52.132;5.442;2023-05-24T12:29:34;102489.91;;;14.73;62.39
71966;BME280;59836;52.132;5.442;2023-05-24T12:32:02;102488.78;;;14.69;61.97
71966;BME280;59836;52.132;5.442;2023-05-24T12:34:29;102491.44;;;14.64;61.86
71966;BME280;59836;52.132;5.442;2023-05-24T12:36:55;102505.34;;;14.63;62.36
71966;BME280;59836;52.132;5.442;2023-05-24T12:39:26;102493.03;;;14.60;62.83
71966;BME280;59836;52.132;5.442;2023-05-24T12:42:03;102491.94;;;14.61;61.94
71966;BME280;59836;52.132;5.442;2023-05-24T12:44:34;102491.44;;;14.64;63.13
71966;BME280;59836;52.132;5.442;2023-05-24T12:47:04;102490.19;;;14.72;63.20
71966;BME280;59836;52.132;5.442;2023-05-24T12:49:31;102489.41;;;14.76;62.99
71966;BME280;59836;52.132;5.442;2023-05-24T12:51:58;102493.53;;;14.79;63.36
71966;BME280;59836;52.132;5.442;2023-05-24T12:54:26;102500.16;;;14.83;63.29
71966;BME280;59836;52.132;5.442;2023-05-24T12:56:54;102492.25;;;14.87;62.82
71966;BME280;59836;52.132;5.442;2023-05-24T12:59:22;102491.97;;;14.88;62.43
71966;BME280;59836;52.132;5.442;2023-05-24T13:01:49;102494.47;;;14.90;62.11
71966;BME280;59836;52.132;5.442;2023-05-24T13:04:18;102497.19;;;14.90;63.29
71966;BME280;59836;52.132;5.442;2023-05-24T13:06:46;102497.25;;;14.95;62.83
71966;BME280;59836;52.132;5.442;2023-05-24T13:09:14;102493.72;;;15.00;62.83
71966;BME280;59836;52.132;5.442;2023-05-24T13:11:41;102498.38;;;14.99;63.07
71966;BME280;59836;52.132;5.442;2023-05-24T13:14:07;102497.53;;;14.99;61.95
71966;BME280;59836;52.132;5.442;2023-05-24T13:16:34;102495.88;;;14.98;62.51